AWG107R LROP-LRSV
Flight info
| Callsign | AWG107R |
|---|---|
| Flight time | 0h 36m |
| Altitude | 28000 |
| Route | DENAK DCT ADMEC DCT PASKA |
| Aircraft | A20N/M-SDE2E3FGHIRWXY/LB1 |
Departure
| Time | 2026-05-05 16:13 |
|---|---|
| Airport | Bucharest Henri Coandă International Airport (LROP) |
Arrival
| Time | 2026-05-05 16:50 |
|---|---|
| Airport | Suceava Ștefan cel Mare International Airport (LRSV) |
| Time | Latitude | Longitude | Altitude | Speed | Heading |
|---|---|---|---|---|---|
| 2026-05-05 15:57 | 44.57141 | 26.08167 | 326 ft | 0 kts | 174° |
| 2026-05-05 16:03 | 44.57148 | 26.08166 | 326 ft | 3 kts | 174° |
| 2026-05-05 16:03 | 44.57167 | 26.08164 | 325 ft | 3 kts | 174° |
| 2026-05-05 16:03 | 44.57186 | 26.08161 | 323 ft | 3 kts | 174° |
| 2026-05-05 16:04 | 44.57204 | 26.08155 | 322 ft | 3 kts | 143° |
| 2026-05-05 16:04 | 44.57216 | 26.08133 | 323 ft | 3 kts | 101° |
| 2026-05-05 16:04 | 44.57214 | 26.08107 | 322 ft | 3 kts | 59° |
| 2026-05-05 16:04 | 44.57209 | 26.08094 | 324 ft | 3 kts | 73° |
| 2026-05-05 16:05 | 44.57208 | 26.08089 | 322 ft | 0 kts | 82° |
| 2026-05-05 16:06 | 44.57208 | 26.08091 | 323 ft | 1 kts | 82° |
| 2026-05-05 16:07 | 44.57208 | 26.08120 | 324 ft | 5 kts | 89° |
| 2026-05-05 16:07 | 44.57211 | 26.08192 | 324 ft | 9 kts | 84° |
| 2026-05-05 16:07 | 44.57219 | 26.08302 | 326 ft | 13 kts | 84° |
| 2026-05-05 16:07 | 44.57229 | 26.08440 | 326 ft | 14 kts | 84° |
| 2026-05-05 16:08 | 44.57292 | 26.08497 | 324 ft | 12 kts | 354° |
| 2026-05-05 16:08 | 44.57375 | 26.08484 | 326 ft | 12 kts | 354° |
| 2026-05-05 16:08 | 44.57486 | 26.08502 | 326 ft | 23 kts | 55° |
| 2026-05-05 16:08 | 44.57514 | 26.08783 | 326 ft | 32 kts | 84° |
| 2026-05-05 16:09 | 44.57538 | 26.09096 | 326 ft | 32 kts | 83° |
| 2026-05-05 16:09 | 44.57561 | 26.09405 | 326 ft | 32 kts | 84° |
| 2026-05-05 16:09 | 44.57586 | 26.09730 | 325 ft | 34 kts | 84° |
| 2026-05-05 16:09 | 44.57610 | 26.10054 | 325 ft | 34 kts | 84° |
| 2026-05-05 16:10 | 44.57635 | 26.10380 | 325 ft | 33 kts | 84° |
| 2026-05-05 16:10 | 44.57659 | 26.10701 | 325 ft | 33 kts | 84° |
| 2026-05-05 16:10 | 44.57683 | 26.11020 | 323 ft | 33 kts | 84° |
| 2026-05-05 16:10 | 44.57707 | 26.11337 | 325 ft | 33 kts | 84° |
| 2026-05-05 16:11 | 44.57731 | 26.11653 | 325 ft | 33 kts | 84° |
| 2026-05-05 16:11 | 44.57799 | 26.12558 | 324 ft | 19 kts | 84° |
| 2026-05-05 16:12 | 44.57812 | 26.12740 | 325 ft | 19 kts | 84° |
| 2026-05-05 16:12 | 44.57960 | 26.12779 | 325 ft | 16 kts | 322° |
| 2026-05-05 16:13 | 44.57813 | 26.10544 | 341 ft | 158 kts | 268° |
| 2026-05-05 16:13 | 44.57716 | 26.08941 | 716 ft | 171 kts | 264° |
| 2026-05-05 16:13 | 44.57606 | 26.07276 | 1329 ft | 170 kts | 263° |
| 2026-05-05 16:14 | 44.57392 | 26.04392 | 2296 ft | 198 kts | 263° |
| 2026-05-05 16:14 | 44.57121 | 26.00276 | 3838 ft | 218 kts | 274° |
| 2026-05-05 16:15 | 44.58968 | 25.96740 | 4987 ft | 256 kts | 338° |
| 2026-05-05 16:15 | 44.62491 | 25.95740 | 6550 ft | 273 kts | 10° |
| 2026-05-05 16:16 | 44.65705 | 25.98646 | 8592 ft | 273 kts | 40° |
| 2026-05-05 16:16 | 44.68472 | 26.02293 | 10597 ft | 279 kts | 41° |
| 2026-05-05 16:17 | 44.71518 | 26.06290 | 11416 ft | 320 kts | 41° |
| 2026-05-05 16:17 | 44.73174 | 26.08456 | 12130 ft | 328 kts | 41° |
| 2026-05-05 16:18 | 44.76563 | 26.12874 | 13911 ft | 334 kts | 41° |
| 2026-05-05 16:18 | 44.78290 | 26.15117 | 14683 ft | 339 kts | 42° |
| 2026-05-05 16:18 | 44.81794 | 26.19667 | 16121 ft | 350 kts | 42° |
| 2026-05-05 16:19 | 44.83598 | 26.22011 | 16839 ft | 355 kts | 42° |
| 2026-05-05 16:19 | 44.85474 | 26.24302 | 17550 ft | 359 kts | 37° |
| 2026-05-05 16:19 | 44.90044 | 26.27108 | 18832 ft | 370 kts | 13° |
| 2026-05-05 16:20 | 44.95235 | 26.28096 | 20042 ft | 379 kts | 6° |
| 2026-05-05 16:20 | 45.00563 | 26.28629 | 21262 ft | 387 kts | 5° |
| 2026-05-05 16:21 | 45.05946 | 26.29180 | 22455 ft | 394 kts | 5° |
| 2026-05-05 16:22 | 45.14274 | 26.30211 | 24017 ft | 405 kts | 5° |
| 2026-05-05 16:22 | 45.19918 | 26.30971 | 24910 ft | 411 kts | 5° |
| 2026-05-05 16:23 | 45.25663 | 26.31754 | 25760 ft | 417 kts | 5° |
| 2026-05-05 16:23 | 45.28572 | 26.32150 | 26187 ft | 420 kts | 5° |
| 2026-05-05 16:23 | 45.34444 | 26.32950 | 26934 ft | 426 kts | 5° |
| 2026-05-05 16:24 | 45.37361 | 26.33346 | 27014 ft | 426 kts | 5° |
| 2026-05-05 16:24 | 45.40319 | 26.33748 | 27016 ft | 426 kts | 5° |
| 2026-05-05 16:24 | 45.46239 | 26.34553 | 27017 ft | 427 kts | 5° |
| 2026-05-05 16:25 | 45.49202 | 26.34955 | 27016 ft | 427 kts | 5° |
| 2026-05-05 16:25 | 45.55107 | 26.35759 | 27017 ft | 427 kts | 5° |
| 2026-05-05 16:25 | 45.58071 | 26.36163 | 27011 ft | 428 kts | 5° |
| 2026-05-05 16:26 | 45.64001 | 26.36972 | 27011 ft | 428 kts | 5° |
| 2026-05-05 16:26 | 45.69904 | 26.37779 | 27013 ft | 428 kts | 5° |
| 2026-05-05 16:27 | 45.72879 | 26.38186 | 27013 ft | 428 kts | 5° |
| 2026-05-05 16:27 | 45.75850 | 26.38592 | 27010 ft | 428 kts | 5° |
| 2026-05-05 16:27 | 45.78813 | 26.38999 | 27006 ft | 428 kts | 5° |
| 2026-05-05 16:27 | 45.81791 | 26.39408 | 27008 ft | 428 kts | 5° |
| 2026-05-05 16:28 | 45.84723 | 26.39812 | 27004 ft | 428 kts | 5° |
| 2026-05-05 16:28 | 45.87700 | 26.40221 | 27003 ft | 428 kts | 5° |
| 2026-05-05 16:28 | 45.90646 | 26.40627 | 27002 ft | 423 kts | 5° |
| 2026-05-05 16:28 | 45.93571 | 26.41032 | 27001 ft | 421 kts | 5° |
| 2026-05-05 16:29 | 45.96495 | 26.41436 | 26998 ft | 421 kts | 5° |
| 2026-05-05 16:29 | 45.99425 | 26.41842 | 27001 ft | 421 kts | 5° |
| 2026-05-05 16:29 | 46.02310 | 26.42243 | 26999 ft | 421 kts | 5° |
| 2026-05-05 16:29 | 46.05237 | 26.42650 | 26998 ft | 421 kts | 5° |
| 2026-05-05 16:30 | 46.08155 | 26.43056 | 26994 ft | 421 kts | 5° |
| 2026-05-05 16:30 | 46.11083 | 26.43464 | 26992 ft | 421 kts | 5° |
| 2026-05-05 16:30 | 46.13970 | 26.43866 | 26991 ft | 421 kts | 5° |
| 2026-05-05 16:30 | 46.16896 | 26.44275 | 27011 ft | 422 kts | 5° |
| 2026-05-05 16:31 | 46.19867 | 26.44689 | 26849 ft | 437 kts | 5° |
| 2026-05-05 16:31 | 46.20899 | 26.44832 | 26750 ft | 440 kts | 5° |
| 2026-05-05 16:31 | 46.21607 | 26.44931 | 26701 ft | 441 kts | 5° |
| 2026-05-05 16:31 | 46.24393 | 26.45317 | 26430 ft | 439 kts | 5° |
| 2026-05-05 16:32 | 46.27437 | 26.45737 | 25794 ft | 436 kts | 5° |
| 2026-05-05 16:32 | 46.30445 | 26.46151 | 25261 ft | 430 kts | 6° |
| 2026-05-05 16:32 | 46.33369 | 26.46550 | 24706 ft | 425 kts | 6° |
| 2026-05-05 16:32 | 46.36301 | 26.46950 | 24149 ft | 420 kts | 6° |
| 2026-05-05 16:33 | 46.39206 | 26.47344 | 23577 ft | 415 kts | 6° |
| 2026-05-05 16:33 | 46.42072 | 26.47733 | 22910 ft | 411 kts | 6° |
| 2026-05-05 16:33 | 46.44876 | 26.48115 | 22247 ft | 407 kts | 6° |
| 2026-05-05 16:33 | 46.47674 | 26.48498 | 21610 ft | 402 kts | 7° |
| 2026-05-05 16:34 | 46.50465 | 26.48882 | 20959 ft | 398 kts | 7° |
| 2026-05-05 16:34 | 46.53187 | 26.49258 | 20341 ft | 394 kts | 7° |
| 2026-05-05 16:34 | 46.55910 | 26.49636 | 19715 ft | 389 kts | 7° |
| 2026-05-05 16:34 | 46.58602 | 26.50011 | 19094 ft | 386 kts | 7° |
| 2026-05-05 16:35 | 46.61266 | 26.50383 | 18514 ft | 381 kts | 7° |
| 2026-05-05 16:35 | 46.63865 | 26.50747 | 17866 ft | 377 kts | 7° |
| 2026-05-05 16:35 | 46.66470 | 26.51115 | 17167 ft | 374 kts | 7° |
| 2026-05-05 16:35 | 46.69064 | 26.51481 | 16507 ft | 371 kts | 7° |
| 2026-05-05 16:36 | 46.71624 | 26.51844 | 15847 ft | 367 kts | 7° |
| 2026-05-05 16:36 | 46.74157 | 26.52204 | 15212 ft | 364 kts | 7° |
| 2026-05-05 16:36 | 46.76675 | 26.52561 | 14587 ft | 361 kts | 7° |
| 2026-05-05 16:36 | 46.79132 | 26.52910 | 13984 ft | 357 kts | 7° |
| 2026-05-05 16:37 | 46.81606 | 26.53261 | 13557 ft | 354 kts | 7° |
| 2026-05-05 16:37 | 46.84023 | 26.53606 | 13124 ft | 352 kts | 7° |
| 2026-05-05 16:37 | 46.86485 | 26.53960 | 12414 ft | 350 kts | 7° |
| 2026-05-05 16:37 | 46.88910 | 26.54312 | 11766 ft | 347 kts | 7° |
| 2026-05-05 16:38 | 46.91272 | 26.54657 | 11224 ft | 343 kts | 7° |
| 2026-05-05 16:38 | 46.93642 | 26.55006 | 10989 ft | 343 kts | 6° |
| 2026-05-05 16:38 | 46.96025 | 26.55358 | 10950 ft | 343 kts | 6° |
| 2026-05-05 16:38 | 46.98402 | 26.55707 | 10961 ft | 343 kts | 6° |
| 2026-05-05 16:39 | 47.00782 | 26.56055 | 10959 ft | 343 kts | 6° |
| 2026-05-05 16:39 | 47.03153 | 26.56399 | 10903 ft | 341 kts | 6° |
| 2026-05-05 16:39 | 47.05504 | 26.56740 | 10473 ft | 333 kts | 6° |
| 2026-05-05 16:39 | 47.07731 | 26.57064 | 10323 ft | 317 kts | 6° |
| 2026-05-05 16:40 | 47.09875 | 26.57379 | 10190 ft | 301 kts | 6° |
| 2026-05-05 16:40 | 47.11922 | 26.57649 | 10032 ft | 288 kts | 2° |
| 2026-05-05 16:40 | 47.13879 | 26.57444 | 9889 ft | 276 kts | 352° |
| 2026-05-05 16:40 | 47.15730 | 26.56918 | 9530 ft | 272 kts | 348° |
| 2026-05-05 16:41 | 47.17570 | 26.56273 | 9173 ft | 270 kts | 347° |
| 2026-05-05 16:41 | 47.19395 | 26.55585 | 8817 ft | 268 kts | 346° |
| 2026-05-05 16:41 | 47.21181 | 26.54891 | 8475 ft | 267 kts | 346° |
| 2026-05-05 16:41 | 47.22990 | 26.54178 | 8126 ft | 265 kts | 346° |
| 2026-05-05 16:42 | 47.24746 | 26.53479 | 7794 ft | 264 kts | 346° |
| 2026-05-05 16:42 | 47.26522 | 26.52770 | 7444 ft | 263 kts | 345° |
| 2026-05-05 16:42 | 47.28287 | 26.52063 | 7100 ft | 261 kts | 346° |
| 2026-05-05 16:42 | 47.30041 | 26.51359 | 6766 ft | 261 kts | 345° |
| 2026-05-05 16:43 | 47.31792 | 26.50657 | 6426 ft | 260 kts | 345° |
| 2026-05-05 16:43 | 47.33566 | 26.50022 | 6075 ft | 263 kts | 349° |
| 2026-05-05 16:43 | 47.35355 | 26.49601 | 5756 ft | 262 kts | 352° |
| 2026-05-05 16:43 | 47.37166 | 26.49259 | 5416 ft | 260 kts | 353° |
| 2026-05-05 16:44 | 47.38930 | 26.48820 | 5056 ft | 260 kts | 347° |
| 2026-05-05 16:44 | 47.40672 | 26.48149 | 4788 ft | 257 kts | 345° |
| 2026-05-05 16:44 | 47.42365 | 26.47417 | 4450 ft | 256 kts | 343° |
| 2026-05-05 16:44 | 47.44064 | 26.46656 | 4119 ft | 255 kts | 343° |
| 2026-05-05 16:45 | 47.45761 | 26.45884 | 3796 ft | 255 kts | 343° |
| 2026-05-05 16:45 | 47.47468 | 26.45105 | 3449 ft | 255 kts | 343° |
| 2026-05-05 16:45 | 47.49170 | 26.44331 | 3128 ft | 254 kts | 343° |
| 2026-05-05 16:45 | 47.50843 | 26.43572 | 2998 ft | 251 kts | 343° |
| 2026-05-05 16:46 | 47.52455 | 26.42846 | 2973 ft | 233 kts | 344° |
| 2026-05-05 16:46 | 47.53953 | 26.42163 | 2993 ft | 215 kts | 343° |
| 2026-05-05 16:46 | 47.55313 | 26.41507 | 3019 ft | 196 kts | 343° |
| 2026-05-05 16:46 | 47.56585 | 26.40933 | 2993 ft | 192 kts | 345° |
| 2026-05-05 16:47 | 47.57856 | 26.40374 | 2988 ft | 185 kts | 344° |
| 2026-05-05 16:47 | 47.59033 | 26.39832 | 2967 ft | 166 kts | 343° |
| 2026-05-05 16:47 | 47.60074 | 26.39342 | 2906 ft | 152 kts | 343° |
| 2026-05-05 16:47 | 47.61049 | 26.38894 | 2710 ft | 142 kts | 345° |
| 2026-05-05 16:48 | 47.61979 | 26.38476 | 2516 ft | 142 kts | 345° |
| 2026-05-05 16:48 | 47.62926 | 26.38048 | 2333 ft | 143 kts | 343° |
| 2026-05-05 16:48 | 47.63888 | 26.37613 | 2131 ft | 143 kts | 344° |
| 2026-05-05 16:48 | 47.64845 | 26.37180 | 1962 ft | 144 kts | 344° |
| 2026-05-05 16:49 | 47.65799 | 26.36732 | 1818 ft | 144 kts | 344° |
| 2026-05-05 16:49 | 47.66759 | 26.36297 | 1635 ft | 145 kts | 345° |
| 2026-05-05 16:49 | 47.67719 | 26.35860 | 1441 ft | 143 kts | 345° |
| 2026-05-05 16:49 | 47.68569 | 26.35475 | 1364 ft | 98 kts | 344° |
| 2026-05-05 16:50 | 47.68839 | 26.35324 | 1362 ft | 15 kts | 239° |
| 2026-05-05 16:50 | 47.68759 | 26.35333 | 1363 ft | 12 kts | 231° |
| 2026-05-05 16:50 | 47.68713 | 26.35172 | 1362 ft | 19 kts | 216° |
| 2026-05-05 16:50 | 47.68594 | 26.35231 | 1362 ft | 22 kts | 164° |
| 2026-05-05 16:51 | 47.68561 | 26.35168 | 1362 ft | 4 kts | 300° |
| 2026-05-05 16:51 | 47.68563 | 26.35137 | 1361 ft | 0 kts | 279° |